createdAt,value
2023-05-15T00:00:20.734Z,13.10
2023-05-15T00:02:51.284Z,13.12
2023-05-15T00:05:20.285Z,13.05
2023-05-15T00:07:49.059Z,13.05
2023-05-15T00:10:17.828Z,13.07
2023-05-15T00:12:46.557Z,13.11
2023-05-15T00:15:15.358Z,13.09
2023-05-15T00:17:44.082Z,13.02
2023-05-15T00:20:14.717Z,12.97
2023-05-15T00:22:43.478Z,12.93
2023-05-15T00:25:12.187Z,12.76
2023-05-15T00:27:40.911Z,12.84
2023-05-15T00:30:11.208Z,12.91
2023-05-15T00:32:41.139Z,12.94
2023-05-15T00:35:10.398Z,12.89
2023-05-15T00:37:40.582Z,12.81
2023-05-15T00:40:14.057Z,12.59
2023-05-15T00:42:43.614Z,12.65
2023-05-15T00:45:14.121Z,12.69
2023-05-15T00:47:44.776Z,12.38
2023-05-15T00:50:14.349Z,12.22
2023-05-15T00:52:45.143Z,12.21
2023-05-15T00:55:13.897Z,12.15
2023-05-15T00:57:45.286Z,12.22
2023-05-15T01:00:18.442Z,12.14
2023-05-15T01:02:47.549Z,12.16
2023-05-15T01:05:16.625Z,12.16
2023-05-15T01:08:02.474Z,11.97
2023-05-15T01:10:31.341Z,12.09
2023-05-15T01:13:02.717Z,12.20
2023-05-15T01:15:31.431Z,12.30
2023-05-15T01:18:00.263Z,12.24
2023-05-15T01:20:35.455Z,12.24
2023-05-15T01:23:25.177Z,12.31
2023-05-15T01:26:44.407Z,12.18
2023-05-15T01:29:24.368Z,12.21
2023-05-15T01:32:00.854Z,12.29
2023-05-15T01:34:44.042Z,12.32
2023-05-15T01:37:15.694Z,12.34
2023-05-15T01:39:48.905Z,12.34
2023-05-15T01:42:20.972Z,12.33
2023-05-15T01:44:56.638Z,12.17
2023-05-15T01:47:36.210Z,12.07
2023-05-15T01:50:11.289Z,12.12
2023-05-15T01:52:46.314Z,12.16
2023-05-15T01:55:17.257Z,12.21
2023-05-15T01:57:49.773Z,12.25
2023-05-15T02:00:20.849Z,12.30
2023-05-15T02:02:51.802Z,12.34
2023-05-15T02:05:21.251Z,12.31
2023-05-15T02:07:51.113Z,12.31
2023-05-15T02:10:21.277Z,12.34
2023-05-15T02:12:51.792Z,12.36
2023-05-15T02:15:26.464Z,12.36
2023-05-15T02:17:56.861Z,12.38
2023-05-15T02:20:25.668Z,12.39
2023-05-15T02:22:54.385Z,12.42
2023-05-15T02:25:39.768Z,12.44
2023-05-15T02:28:20.799Z,12.44
2023-05-15T02:31:00.435Z,12.46
2023-05-15T02:33:43.895Z,12.46
2023-05-15T02:36:19.517Z,12.41
2023-05-15T02:38:53.272Z,12.43
2023-05-15T02:41:24.363Z,12.45
2023-05-15T02:43:56.365Z,12.48
2023-05-15T02:46:28.149Z,12.48
2023-05-15T02:48:57.295Z,12.43
2023-05-15T02:51:26.740Z,12.37
2023-05-15T02:53:57.632Z,12.23
2023-05-15T02:56:26.457Z,12.19
2023-05-15T02:58:55.670Z,12.26
2023-05-15T03:01:25.857Z,12.32
2023-05-15T03:03:54.677Z,12.38
2023-05-15T03:06:23.480Z,12.40
2023-05-15T03:08:52.183Z,12.43
2023-05-15T03:11:21.443Z,12.43
2023-05-15T03:13:50.118Z,12.42
2023-05-15T03:16:18.817Z,12.41
2023-05-15T03:18:49.101Z,12.29
2023-05-15T03:21:17.847Z,12.34
2023-05-15T03:23:46.574Z,12.29
2023-05-15T03:26:15.366Z,12.34
2023-05-15T03:28:45.087Z,12.38
2023-05-15T03:31:14.447Z,12.41
2023-05-15T03:33:43.372Z,12.42
2023-05-15T03:36:13.448Z,12.46
2023-05-15T03:38:44.026Z,12.48
2023-05-15T03:41:12.856Z,12.49
2023-05-15T03:43:41.536Z,12.49
2023-05-15T03:46:10.291Z,12.51
2023-05-15T03:48:42.716Z,12.51
2023-05-15T03:51:15.257Z,12.52
2023-05-15T03:53:49.373Z,12.39
2023-05-15T03:56:20.091Z,12.42
2023-05-15T03:59:32.273Z,12.48
2023-05-15T04:02:16.714Z,12.51
2023-05-15T04:04:45.843Z,12.56
2023-05-15T04:07:31.484Z,12.60
2023-05-15T04:12:42.584Z,12.51
2023-05-15T04:15:20.217Z,12.53
2023-05-15T04:17:54.528Z,12.49
2023-05-15T04:20:25.978Z,12.57
2023-05-15T04:22:58.845Z,12.54
2023-05-15T04:25:30.966Z,12.64
2023-05-15T04:28:00.027Z,12.60
2023-05-15T04:30:28.995Z,12.58
2023-05-15T04:33:35.005Z,12.72
2023-05-15T04:36:05.364Z,12.75
2023-05-15T04:38:37.539Z,12.81
2023-05-15T04:41:06.273Z,12.83
2023-05-15T04:43:38.810Z,12.86
2023-05-15T04:46:10.872Z,12.88
2023-05-15T04:48:39.930Z,12.92
2023-05-15T04:51:16.326Z,12.94
2023-05-15T04:53:46.473Z,12.97
2023-05-15T04:56:15.153Z,13.00
2023-05-15T04:58:44.090Z,13.04
2023-05-15T05:01:23.638Z,13.06
2023-05-15T05:03:53.549Z,13.08
2023-05-15T05:06:22.441Z,13.03
2023-05-15T05:08:52.444Z,13.07
2023-05-15T05:11:48.464Z,13.11
2023-05-15T05:14:17.866Z,13.14
2023-05-15T05:16:47.023Z,13.19
2023-05-15T05:19:15.798Z,13.20
2023-05-15T05:21:44.631Z,13.20
2023-05-15T05:24:14.761Z,13.23
2023-05-15T05:26:45.871Z,13.22
2023-05-15T05:29:14.627Z,13.17
2023-05-15T05:31:43.313Z,13.14
2023-05-15T05:34:12.004Z,13.19
2023-05-15T05:36:40.802Z,13.24
2023-05-15T05:39:09.483Z,13.29
2023-05-15T05:41:39.570Z,13.32
2023-05-15T05:44:08.243Z,13.39
2023-05-15T05:46:37.156Z,13.47
2023-05-15T05:49:06.059Z,13.50
2023-05-15T05:51:37.079Z,13.58
2023-05-15T05:54:06.500Z,13.65
2023-05-15T05:56:35.374Z,13.71
2023-05-15T05:59:06.567Z,13.78
2023-05-15T06:01:37.489Z,13.86
2023-05-15T06:04:06.932Z,13.93
2023-05-15T06:06:35.808Z,13.95
2023-05-15T06:09:05.683Z,13.96
2023-05-15T06:11:34.915Z,13.97
2023-05-15T06:14:05.047Z,14.04
2023-05-15T06:16:33.839Z,14.07
2023-05-15T06:19:02.764Z,14.14
2023-05-15T06:21:31.579Z,14.16
2023-05-15T06:24:00.443Z,14.23
2023-05-15T06:26:29.216Z,14.30
2023-05-15T06:28:57.901Z,14.37
2023-05-15T06:31:28.093Z,14.42
2023-05-15T06:33:56.951Z,14.48
2023-05-15T06:36:25.664Z,14.49
2023-05-15T06:38:54.404Z,14.51
2023-05-15T06:41:23.146Z,14.55
2023-05-15T06:43:51.832Z,14.55
2023-05-15T06:46:20.800Z,14.67
2023-05-15T06:48:50.916Z,14.69
2023-05-15T06:51:19.589Z,14.78
2023-05-15T06:53:48.532Z,14.90
2023-05-15T06:56:17.229Z,14.94
2023-05-15T06:58:46.056Z,15.01
2023-05-15T07:01:14.798Z,14.96
2023-05-15T07:03:44.161Z,15.06
2023-05-15T07:06:14.253Z,15.14
2023-05-15T07:08:43.172Z,15.26
2023-05-15T07:11:11.880Z,15.29
2023-05-15T07:13:40.599Z,15.33
2023-05-15T07:16:09.398Z,15.42
2023-05-15T07:18:38.251Z,15.35
2023-05-15T07:21:07.610Z,15.42
2023-05-15T07:23:37.746Z,15.50
2023-05-15T07:26:08.766Z,15.57
2023-05-15T07:28:40.852Z,15.68
2023-05-15T07:31:09.959Z,15.56
2023-05-15T07:33:38.853Z,15.58
2023-05-15T07:36:08.332Z,15.62
2023-05-15T07:38:38.476Z,15.52
2023-05-15T07:41:07.209Z,15.68
2023-05-15T07:43:35.960Z,15.84
2023-05-15T07:46:04.671Z,15.92
2023-05-15T07:48:33.451Z,15.77
2023-05-15T07:51:02.482Z,15.87
2023-05-15T07:53:34.848Z,15.94
2023-05-15T07:56:05.540Z,15.96
2023-05-15T07:58:35.628Z,15.91
2023-05-15T08:01:04.332Z,16.01
2023-05-15T08:03:34.118Z,15.97
2023-05-15T08:06:02.940Z,16.03
2023-05-15T08:08:31.819Z,16.13
2023-05-15T08:11:00.499Z,16.14
2023-05-15T08:13:30.658Z,16.24
2023-05-15T08:15:59.480Z,16.28
2023-05-15T08:18:28.167Z,16.25
2023-05-15T08:20:56.841Z,16.32
2023-05-15T08:23:25.673Z,16.40
2023-05-15T08:25:54.381Z,16.43
2023-05-15T08:28:23.081Z,16.43
2023-05-15T08:30:53.264Z,16.42
2023-05-15T08:33:22.031Z,16.45
2023-05-15T08:35:51.958Z,16.44
2023-05-15T08:38:20.769Z,16.42
2023-05-15T08:40:54.193Z,16.42
2023-05-15T08:43:24.699Z,16.40
2023-05-15T08:45:56.887Z,16.34
2023-05-15T08:48:30.686Z,16.39
2023-05-15T08:51:01.636Z,16.45
2023-05-15T08:53:31.928Z,16.51
2023-05-15T08:56:03.739Z,16.43
2023-05-15T08:58:34.231Z,16.49
2023-05-15T09:01:05.384Z,16.47
2023-05-15T09:03:34.190Z,16.33
2023-05-15T09:06:04.520Z,16.28
2023-05-15T09:08:35.569Z,16.36
2023-05-15T09:11:07.961Z,16.41
2023-05-15T09:13:36.736Z,16.40
2023-05-15T09:16:08.931Z,16.55
2023-05-15T09:18:40.152Z,16.55
2023-05-15T09:21:26.193Z,16.60
2023-05-15T09:23:56.410Z,16.70
2023-05-15T09:26:25.884Z,16.82
2023-05-15T09:29:04.134Z,16.93
2023-05-15T09:31:34.890Z,17.02
2023-05-15T09:34:06.571Z,17.12
2023-05-15T09:36:35.293Z,17.15
2023-05-15T09:39:04.474Z,17.23
2023-05-15T09:41:33.153Z,17.24
2023-05-15T09:44:02.090Z,17.25
2023-05-15T09:46:31.332Z,17.30
2023-05-15T09:49:01.665Z,17.46
2023-05-15T09:51:30.424Z,17.54
2023-05-15T09:53:59.657Z,17.55
2023-05-15T09:56:28.511Z,17.57
2023-05-15T09:58:58.879Z,17.62
2023-05-15T10:01:28.627Z,17.64
2023-05-15T10:04:04.145Z,17.63
2023-05-15T10:06:37.717Z,17.75
2023-05-15T10:09:07.347Z,17.89
2023-05-15T10:11:38.821Z,18.05
2023-05-15T10:14:09.384Z,18.08
2023-05-15T10:16:40.599Z,18.15
2023-05-15T10:19:13.408Z,18.17
2023-05-15T10:21:43.426Z,18.12
2023-05-15T10:24:13.709Z,18.11
2023-05-15T10:26:44.594Z,18.24
2023-05-15T10:29:15.301Z,18.39
2023-05-15T10:31:44.728Z,18.48
2023-05-15T10:34:15.530Z,18.55
2023-05-15T10:36:45.114Z,18.69
2023-05-15T10:39:14.620Z,18.70
2023-05-15T10:41:46.414Z,18.65
2023-05-15T10:44:17.960Z,18.70
2023-05-15T10:46:47.033Z,18.71
2023-05-15T10:49:17.938Z,18.92
2023-05-15T10:51:46.661Z,19.13
2023-05-15T10:54:16.623Z,19.27
2023-05-15T10:56:45.489Z,19.77
2023-05-15T10:59:14.233Z,20.22
2023-05-15T11:01:43.358Z,20.25
2023-05-15T11:04:14.706Z,20.37
2023-05-15T11:06:47.853Z,20.27
2023-05-15T11:09:36.717Z,19.77
2023-05-15T11:12:15.041Z,19.31
2023-05-15T11:15:05.718Z,18.88
2023-05-15T11:17:38.488Z,18.51
2023-05-15T11:20:08.457Z,18.17
2023-05-15T11:23:13.680Z,17.84
2023-05-15T11:25:44.821Z,17.66
2023-05-15T11:28:24.757Z,17.54
2023-05-15T11:30:54.924Z,17.41
2023-05-15T11:33:25.352Z,17.37
2023-05-15T11:36:01.232Z,17.27
2023-05-15T11:38:30.031Z,17.19
2023-05-15T11:41:03.578Z,17.10
2023-05-15T11:43:34.119Z,17.04
2023-05-15T11:46:09.391Z,17.09
2023-05-15T11:48:43.348Z,17.16
2023-05-15T11:51:20.371Z,17.30
2023-05-15T11:53:51.797Z,17.53
2023-05-15T11:56:22.881Z,17.74
2023-05-15T11:58:52.904Z,17.93
2023-05-15T12:01:21.936Z,18.11
2023-05-15T12:03:54.409Z,18.24
2023-05-15T12:06:24.872Z,18.35
2023-05-15T12:08:55.221Z,18.42
2023-05-15T12:11:29.018Z,18.55
2023-05-15T12:14:01.029Z,18.72
2023-05-15T12:16:30.244Z,18.83
2023-05-15T12:19:01.338Z,18.95
2023-05-15T12:21:30.226Z,18.99
2023-05-15T12:24:07.699Z,19.15
2023-05-15T12:26:37.339Z,19.24
2023-05-15T12:29:07.101Z,19.13
2023-05-15T12:31:37.454Z,19.10
2023-05-15T12:34:10.938Z,19.06
2023-05-15T12:36:42.905Z,19.02
2023-05-15T12:39:12.972Z,19.17
2023-05-15T12:41:41.951Z,19.47
2023-05-15T12:44:18.954Z,19.87
2023-05-15T12:46:48.272Z,19.95
2023-05-15T12:49:24.947Z,20.18
2023-05-15T12:51:54.004Z,20.04
2023-05-15T12:54:25.407Z,20.30
2023-05-15T12:56:57.007Z,20.52
2023-05-15T12:59:26.476Z,20.53
2023-05-15T13:01:55.332Z,20.65
2023-05-15T13:04:25.573Z,20.66
2023-05-15T13:06:54.386Z,20.56
2023-05-15T13:09:24.052Z,20.87
2023-05-15T13:11:52.786Z,22.04
2023-05-15T13:14:23.496Z,22.48
2023-05-15T13:16:52.911Z,22.55
2023-05-15T13:19:21.695Z,23.21
2023-05-15T13:21:54.314Z,23.68
2023-05-15T13:24:23.328Z,23.38
2023-05-15T13:26:52.660Z,23.60
2023-05-15T13:29:21.379Z,24.04
2023-05-15T13:31:50.281Z,24.01
2023-05-15T13:34:19.085Z,23.88
2023-05-15T13:36:47.921Z,24.11
2023-05-15T13:39:19.379Z,24.46
2023-05-15T13:41:48.620Z,25.21
2023-05-15T13:47:17.585Z,26.66
2023-05-15T13:49:47.538Z,26.67
2023-05-15T13:52:17.350Z,25.89
2023-05-15T13:54:49.197Z,26.00
2023-05-15T13:57:20.408Z,25.11
2023-05-15T13:59:52.782Z,24.28
2023-05-15T14:02:23.531Z,23.63
2023-05-15T14:04:57.226Z,22.95
2023-05-15T14:07:29.438Z,22.39
2023-05-15T14:10:00.235Z,22.28
2023-05-15T14:15:50.556Z,23.33
2023-05-15T14:18:19.537Z,24.47
2023-05-15T14:20:48.513Z,25.89
2023-05-15T14:23:23.023Z,26.69
2023-05-15T14:25:53.278Z,27.31
2023-05-15T14:32:27.131Z,27.93
2023-05-15T14:34:59.820Z,27.91
2023-05-15T14:37:41.198Z,27.08
2023-05-15T14:41:35.471Z,25.44
2023-05-15T14:44:07.454Z,24.40
2023-05-15T14:46:37.965Z,23.69
2023-05-15T14:49:07.111Z,23.13
2023-05-15T14:51:36.289Z,22.57
2023-05-15T14:54:05.800Z,22.32
2023-05-15T14:57:10.076Z,21.95
2023-05-15T15:00:06.737Z,21.74
2023-05-15T15:02:38.822Z,21.68
2023-05-15T15:05:09.328Z,21.72
2023-05-15T15:08:02.047Z,21.91
2023-05-15T15:11:47.361Z,21.79
2023-05-15T15:14:20.368Z,21.61
2023-05-15T15:17:16.731Z,21.40
2023-05-15T15:19:45.449Z,21.19
2023-05-15T15:22:18.352Z,20.98
2023-05-15T15:24:47.113Z,20.77
2023-05-15T15:27:18.461Z,20.67
2023-05-15T15:29:48.083Z,20.59
2023-05-15T15:32:18.863Z,20.56
2023-05-15T15:34:48.568Z,20.60
2023-05-15T15:37:17.590Z,20.55
2023-05-15T15:39:47.050Z,20.60
2023-05-15T15:42:16.833Z,20.53
2023-05-15T15:44:45.965Z,20.42
2023-05-15T15:47:17.596Z,20.13
2023-05-15T15:49:51.574Z,19.82
2023-05-15T15:52:21.522Z,19.72
2023-05-15T15:54:50.380Z,19.62
2023-05-15T15:57:20.674Z,19.55
2023-05-15T15:59:50.068Z,19.48
2023-05-15T16:02:19.078Z,19.50
2023-05-15T16:04:51.062Z,19.58
2023-05-15T16:07:19.756Z,19.79
2023-05-15T16:09:56.885Z,20.07
2023-05-15T16:12:37.197Z,20.19
2023-05-15T16:15:20.748Z,20.18
2023-05-15T16:17:54.959Z,20.06
2023-05-15T16:20:25.633Z,20.02
2023-05-15T16:22:54.763Z,19.91
2023-05-15T16:25:23.635Z,19.87
2023-05-15T16:27:56.965Z,19.84
2023-05-15T16:30:33.636Z,19.83
2023-05-15T16:33:14.797Z,19.72
2023-05-15T16:35:45.625Z,19.54
2023-05-15T16:38:16.040Z,19.43
2023-05-15T16:40:52.128Z,19.41
2023-05-15T16:43:23.614Z,19.38
2023-05-15T16:46:00.050Z,19.29
2023-05-15T16:48:28.931Z,19.22
2023-05-15T16:50:59.142Z,19.03
2023-05-15T16:53:29.843Z,19.09
2023-05-15T16:55:58.722Z,19.15
2023-05-15T16:58:27.537Z,19.17
2023-05-15T17:00:56.638Z,19.08
2023-05-15T17:03:26.336Z,19.09
2023-05-15T17:05:54.999Z,18.89
2023-05-15T17:08:25.046Z,18.80
2023-05-15T17:10:54.471Z,18.78
2023-05-15T17:13:23.276Z,18.85
2023-05-15T17:15:52.087Z,18.88
2023-05-15T17:18:21.046Z,18.93
2023-05-15T17:20:49.916Z,18.99
2023-05-15T17:23:19.177Z,19.00
2023-05-15T17:25:50.256Z,19.05
2023-05-15T17:28:19.070Z,19.05
2023-05-15T17:30:49.056Z,19.01
2023-05-15T17:33:18.283Z,18.88
2023-05-15T17:35:47.732Z,18.82
2023-05-15T17:38:16.361Z,18.62
2023-05-15T17:40:45.065Z,18.49
2023-05-15T17:43:15.239Z,18.32
2023-05-15T17:45:43.919Z,18.11
2023-05-15T17:48:12.583Z,18.11
2023-05-15T17:50:42.109Z,18.02
2023-05-15T17:53:10.814Z,17.80
2023-05-15T17:55:39.475Z,17.72
2023-05-15T17:58:08.323Z,17.61
2023-05-15T18:00:38.753Z,17.52
2023-05-15T18:03:08.295Z,17.38
2023-05-15T18:05:37.063Z,17.35
2023-05-15T18:08:06.894Z,17.25
2023-05-15T18:10:35.542Z,17.12
2023-05-15T18:13:04.180Z,17.00
2023-05-15T18:15:35.167Z,16.99
2023-05-15T18:18:05.990Z,17.04
2023-05-15T18:20:35.078Z,17.12
2023-05-15T18:23:03.813Z,16.96
2023-05-15T18:25:36.798Z,17.02
2023-05-15T18:28:05.647Z,16.99
2023-05-15T18:30:36.399Z,16.85
2023-05-15T18:33:06.743Z,16.73
2023-05-15T18:35:37.284Z,16.74
2023-05-15T18:38:07.204Z,16.80
2023-05-15T18:40:36.151Z,16.79
2023-05-15T18:43:05.057Z,16.63
2023-05-15T18:45:33.850Z,16.49
2023-05-15T18:48:03.149Z,16.41
2023-05-15T18:50:33.392Z,16.22
2023-05-15T18:53:02.654Z,16.20
2023-05-15T18:55:32.375Z,16.12
2023-05-15T18:58:01.030Z,16.05
2023-05-15T19:03:02.620Z,15.92
2023-05-15T19:05:34.129Z,15.87
2023-05-15T19:08:03.951Z,15.84
2023-05-15T19:10:32.679Z,15.98
2023-05-15T19:13:01.334Z,15.86
2023-05-15T19:15:30.284Z,15.69
2023-05-15T19:17:59.070Z,15.62
2023-05-15T19:20:27.962Z,15.59
2023-05-15T19:22:58.185Z,15.53
2023-05-15T19:25:27.084Z,15.43
2023-05-15T19:27:56.209Z,15.40
2023-05-15T19:30:25.423Z,15.55
2023-05-15T19:32:54.233Z,15.60
2023-05-15T19:35:22.988Z,15.50
2023-05-15T19:37:51.653Z,15.37
2023-05-15T19:40:21.852Z,15.37
2023-05-15T19:42:50.520Z,15.37
2023-05-15T19:45:19.184Z,15.44
2023-05-15T19:47:47.901Z,15.50
2023-05-15T19:50:17.022Z,15.42
2023-05-15T19:52:45.793Z,15.38
2023-05-15T19:55:14.623Z,15.26
2023-05-15T19:57:46.073Z,15.32
2023-05-15T20:00:16.074Z,15.24
2023-05-15T20:02:44.791Z,15.11
2023-05-15T20:05:13.494Z,15.11
2023-05-15T20:07:43.202Z,15.07
2023-05-15T20:10:12.123Z,15.02
2023-05-15T20:12:40.800Z,15.08
2023-05-15T20:15:13.337Z,15.02
2023-05-15T20:17:42.230Z,14.98
2023-05-15T20:20:12.376Z,15.02
2023-05-15T20:22:43.606Z,15.05
2023-05-15T20:25:12.671Z,15.07
2023-05-15T20:27:41.299Z,14.92
2023-05-15T20:30:13.042Z,14.89
2023-05-15T20:32:41.829Z,15.00
2023-05-15T20:35:12.279Z,15.03
2023-05-15T20:37:41.059Z,14.97
2023-05-15T20:40:12.862Z,15.10
2023-05-15T20:42:41.627Z,14.98
2023-05-15T20:45:12.608Z,15.10
2023-05-15T20:47:41.544Z,15.16
2023-05-15T20:50:11.525Z,15.20
2023-05-15T20:52:40.403Z,15.27
2023-05-15T20:55:16.256Z,15.28
2023-05-15T20:57:46.113Z,15.29
2023-05-15T21:00:19.053Z,15.35
2023-05-15T21:02:48.406Z,15.33
2023-05-15T21:05:17.189Z,15.34
2023-05-15T21:07:45.880Z,15.34
2023-05-15T21:10:14.548Z,15.39
2023-05-15T21:12:43.357Z,15.40
2023-05-15T21:15:12.519Z,15.39
2023-05-15T21:17:42.651Z,15.38
2023-05-15T21:20:12.547Z,15.28
2023-05-15T21:22:41.376Z,15.24
2023-05-15T21:25:11.997Z,15.11
2023-05-15T21:27:42.096Z,15.12
2023-05-15T21:30:12.128Z,15.06
2023-05-15T21:32:42.457Z,15.07
2023-05-15T21:35:11.462Z,15.08
2023-05-15T21:37:40.129Z,15.06
2023-05-15T21:40:10.591Z,15.03
2023-05-15T21:42:39.228Z,14.95
2023-05-15T21:45:09.333Z,14.84
2023-05-15T21:47:38.132Z,14.82
2023-05-15T21:50:09.363Z,14.74
2023-05-15T21:52:38.023Z,14.80
2023-05-15T21:55:08.271Z,14.79
2023-05-15T21:57:36.994Z,14.72
2023-05-15T22:00:08.298Z,14.76
2023-05-15T22:02:37.170Z,14.77
2023-05-15T22:05:07.950Z,14.71
2023-05-15T22:07:36.599Z,14.71
2023-05-15T22:10:06.180Z,14.66
2023-05-15T22:12:34.905Z,14.64
2023-05-15T22:15:03.545Z,14.61
2023-05-15T22:17:32.152Z,14.56
2023-05-15T22:20:07.926Z,14.54
2023-05-15T22:22:39.135Z,14.54
2023-05-15T22:25:09.235Z,14.49
2023-05-15T22:27:37.867Z,14.49
2023-05-15T22:30:08.673Z,14.44
2023-05-15T22:32:37.388Z,14.46
2023-05-15T22:35:08.400Z,14.46
2023-05-15T22:37:40.741Z,14.37
2023-05-15T22:40:12.785Z,14.36
2023-05-15T22:42:41.880Z,14.36
2023-05-15T22:45:11.897Z,14.29
2023-05-15T22:47:40.552Z,14.26
2023-05-15T22:50:10.859Z,14.21
2023-05-15T22:52:41.033Z,14.20
2023-05-15T22:55:12.688Z,14.21
2023-05-15T22:57:41.423Z,14.10
2023-05-15T23:00:11.341Z,14.11
2023-05-15T23:02:42.601Z,14.02
2023-05-15T23:05:12.965Z,14.04
2023-05-15T23:07:43.005Z,14.03
2023-05-15T23:10:12.293Z,14.04
2023-05-15T23:12:41.434Z,13.96
2023-05-15T23:15:11.466Z,13.94
2023-05-15T23:17:41.547Z,13.93
2023-05-15T23:20:12.854Z,13.92
2023-05-15T23:22:43.009Z,13.90
2023-05-15T23:25:12.060Z,13.83
2023-05-15T23:27:40.798Z,13.73
2023-05-15T23:30:11.035Z,13.75
2023-05-15T23:32:39.693Z,13.73
2023-05-15T23:35:09.188Z,13.69
2023-05-15T23:37:38.007Z,13.69
2023-05-15T23:40:09.847Z,13.68
2023-05-15T23:42:38.485Z,13.67
2023-05-15T23:45:09.137Z,13.62
2023-05-15T23:47:37.790Z,13.63
2023-05-15T23:50:08.734Z,13.61
2023-05-15T23:52:37.388Z,13.58
2023-05-15T23:55:08.811Z,13.52
2023-05-15T23:57:37.508Z,13.46
